Time;durP1;ratioP1;P1;durP2;ratioP2;P2;SDS_P1;SDS_P2;PMS_P1;PMS_P2;Temp;Humidity;BMP_temperature;BMP_pressure;BME280_temperature;BME280_humidity;BME280_pressure;Samples;Min_cycle;Max_cycle;Signal;HPM_P1;HPM_P2
2022/04/05 00:02:13;;;;;;;37.78;16.90;;;5.60;99.90;;;;;;4810200;29;20202;-71
2022/04/05 00:04:40;;;;;;;32.33;14.50;;;5.60;99.90;;;;;;4811702;29;20046;-71
2022/04/05 00:07:07;;;;;;;34.72;17.00;;;5.60;99.90;;;;;;4793463;29;20087;-71
2022/04/05 00:09:33;;;;;;;31.35;15.40;;;5.60;99.90;;;;;;4811582;29;20501;-71
2022/04/05 00:12:01;;;;;;;34.63;14.73;;;5.60;99.90;;;;;;4775733;29;20074;-71
2022/04/05 00:14:27;;;;;;;33.33;15.38;;;5.60;99.90;;;;;;4810499;29;20054;-72
2022/04/05 00:16:54;;;;;;;31.42;14.93;;;5.60;99.90;;;;;;4810692;29;20149;-72
2022/04/05 00:19:22;;;;;;;33.72;15.23;;;5.60;99.90;;;;;;4811371;29;20771;-71
2022/04/05 00:21:49;;;;;;;33.20;14.98;;;5.60;99.90;;;;;;4796831;29;20111;-72
2022/04/05 00:24:16;;;;;;;36.60;16.35;;;5.70;99.90;;;;;;4776959;29;20142;-71
2022/04/05 00:26:43;;;;;;;36.47;16.58;;;5.70;99.90;;;;;;4803205;29;20127;-71
2022/04/05 00:29:10;;;;;;;35.17;16.60;;;5.70;99.90;;;;;;4827061;29;20657;-71
2022/04/05 00:31:37;;;;;;;45.53;16.55;;;5.70;99.90;;;;;;4808083;29;20353;-71
2022/04/05 00:34:04;;;;;;;36.58;14.95;;;5.70;99.90;;;;;;4794279;29;20275;-70
2022/04/05 00:36:30;;;;;;;38.28;16.35;;;5.70;99.90;;;;;;4793283;29;20494;-70
2022/04/05 00:38:57;;;;;;;37.85;15.85;;;5.80;99.90;;;;;;4809271;29;20131;-71
2022/04/05 00:41:24;;;;;;;29.88;13.35;;;5.70;99.90;;;;;;4788988;29;20055;-71
2022/04/05 00:43:51;;;;;;;35.35;14.13;;;5.80;99.90;;;;;;4804903;29;20379;-71
2022/04/05 00:46:17;;;;;;;37.45;14.30;;;5.80;99.90;;;;;;4809680;29;20089;-71
2022/04/05 00:48:59;;;;;;;34.38;14.00;;;5.70;99.90;;;;;;4809471;29;20042;-71
2022/04/05 00:51:26;;;;;;;39.17;14.15;;;5.80;99.90;;;;;;4789352;29;20285;-72
2022/04/05 00:53:55;;;;;;;33.30;13.10;;;5.80;99.90;;;;;;4793155;29;20142;-72
2022/04/05 00:56:22;;;;;;;29.50;11.60;;;5.80;99.90;;;;;;4809072;29;20053;-72
2022/04/05 00:58:52;;;;;;;22.08;9.57;;;5.80;99.90;;;;;;4827872;29;20114;-71
2022/04/05 01:01:21;;;;;;;26.50;11.18;;;5.80;99.90;;;;;;4811870;29;20050;-71
2022/04/05 01:03:51;;;;;;;22.55;9.50;;;5.80;99.90;;;;;;4782277;29;20604;-71
2022/04/05 01:06:18;;;;;;;27.13;11.57;;;5.80;99.90;;;;;;4774523;29;20078;-72
2022/04/05 01:08:46;;;;;;;34.13;14.52;;;5.80;99.90;;;;;;4776520;29;20047;-71
2022/04/05 01:11:13;;;;;;;35.42;14.57;;;5.80;99.90;;;;;;4759386;29;20073;-71
2022/04/05 01:13:40;;;;;;;29.50;13.50;;;5.80;99.90;;;;;;4806496;29;20099;-71
2022/04/05 01:16:07;;;;;;;31.65;13.57;;;5.80;99.90;;;;;;4804201;29;20043;-71
2022/04/05 01:18:34;;;;;;;31.27;14.30;;;5.80;99.90;;;;;;4811443;29;20099;-71
2022/04/05 01:21:02;;;;;;;36.10;13.88;;;5.80;99.90;;;;;;4808830;29;20408;-71
2022/04/05 01:23:29;;;;;;;33.08;14.50;;;5.80;99.90;;;;;;4800401;29;20059;-71
2022/04/05 01:25:59;;;;;;;39.30;16.10;;;5.80;99.90;;;;;;4804338;29;20053;-71
2022/04/05 01:28:25;;;;;;;35.13;13.38;;;5.80;99.90;;;;;;4828453;29;20058;-71
2022/04/05 01:30:53;;;;;;;30.85;13.88;;;5.80;99.90;;;;;;4798472;29;20066;-71
2022/04/05 01:33:20;;;;;;;36.65;14.60;;;5.80;99.90;;;;;;4804029;29;20469;-71
2022/04/05 01:35:47;;;;;;;29.60;12.40;;;5.80;99.90;;;;;;4795726;29;20082;-70
2022/04/05 01:38:15;;;;;;;31.42;11.23;;;5.80;99.90;;;;;;4795982;29;20137;-71
2022/04/05 01:40:42;;;;;;;24.52;11.23;;;5.80;99.90;;;;;;4794850;29;20055;-70
2022/04/05 01:43:09;;;;;;;27.13;11.10;;;5.80;99.90;;;;;;4803552;29;20093;-71
2022/04/05 01:45:36;;;;;;;28.05;10.98;;;5.80;99.90;;;;;;4801366;29;20376;-71
2022/04/05 01:48:03;;;;;;;21.98;10.57;;;5.80;99.90;;;;;;4795927;29;20077;-71
2022/04/05 01:50:31;;;;;;;27.70;10.32;;;5.80;99.90;;;;;;4811725;29;20208;-71
2022/04/05 01:52:58;;;;;;;24.60;10.88;;;5.80;99.90;;;;;;4797219;29;20145;-71
2022/04/05 01:55:25;;;;;;;24.38;10.55;;;5.80;99.90;;;;;;4799097;29;20563;-72
2022/04/05 01:57:52;;;;;;;28.77;11.60;;;5.80;99.90;;;;;;4831196;29;20165;-71
2022/04/05 02:00:18;;;;;;;30.17;11.27;;;5.80;99.90;;;;;;4820752;29;20208;-70
2022/04/05 02:02:45;;;;;;;25.25;10.40;;;5.80;99.90;;;;;;4796795;29;20074;-71
2022/04/05 02:05:12;;;;;;;19.25;8.73;;;5.70;99.90;;;;;;4797090;29;20485;-71
2022/04/05 02:07:39;;;;;;;21.40;9.73;;;5.70;99.90;;;;;;4796325;29;20054;-71
2022/04/05 02:10:06;;;;;;;21.25;8.98;;;5.70;99.90;;;;;;4796223;29;20085;-71
2022/04/05 02:12:33;;;;;;;22.38;9.93;;;5.70;99.90;;;;;;4795234;29;20046;-70
2022/04/05 02:15:08;;;;;;;27.23;11.02;;;5.70;99.90;;;;;;4811147;29;20405;-71
2022/04/05 02:17:43;;;;;;;25.50;10.50;;;5.70;99.90;;;;;;4827965;29;20053;-71
2022/04/05 02:20:15;;;;;;;19.80;8.10;;;5.80;99.90;;;;;;4796916;29;20766;-71
2022/04/05 02:22:42;;;;;;;16.35;7.25;;;5.80;99.90;;;;;;4822242;29;20081;-71
2022/04/05 02:25:17;;;;;;;15.82;7.97;;;5.80;99.90;;;;;;4779489;29;20423;-71
2022/04/05 02:27:47;;;;;;;20.15;9.52;;;5.80;99.90;;;;;;4811438;29;20049;-71
2022/04/05 02:30:19;;;;;;;20.98;8.45;;;5.90;99.90;;;;;;4804619;29;20054;-71
2022/04/05 02:32:49;;;;;;;17.70;8.02;;;5.90;99.90;;;;;;4793626;29;20073;-71
2022/04/05 02:35:18;;;;;;;15.20;6.05;;;5.90;99.90;;;;;;4786058;29;20502;-71
2022/04/05 02:37:46;;;;;;;18.70;7.63;;;5.80;99.90;;;;;;4825503;29;20050;-71
2022/04/05 02:40:15;;;;;;;18.05;7.55;;;5.80;99.90;;;;;;4810455;29;20054;-70
2022/04/05 02:42:42;;;;;;;15.60;7.65;;;5.90;99.90;;;;;;4809224;29;20137;-72
2022/04/05 02:45:12;;;;;;;17.20;7.75;;;5.90;99.90;;;;;;4794124;29;20051;-72
2022/04/05 02:47:40;;;;;;;17.50;7.40;;;5.80;99.90;;;;;;4826481;29;20754;-71
2022/04/05 02:50:09;;;;;;;21.83;8.75;;;5.80;99.90;;;;;;4782978;29;20481;-72
2022/04/05 02:52:37;;;;;;;17.48;8.63;;;5.80;99.90;;;;;;4789609;29;20115;-71
2022/04/05 02:55:05;;;;;;;20.42;8.57;;;5.70;99.90;;;;;;4795217;29;20050;-71
2022/04/05 02:57:37;;;;;;;18.83;8.48;;;5.80;99.90;;;;;;4810293;29;20118;-71
2022/04/05 03:00:08;;;;;;;23.95;9.45;;;5.70;99.90;;;;;;4786383;29;20095;-72
2022/04/05 03:02:36;;;;;;;21.60;8.68;;;5.80;99.90;;;;;;4786516;29;20219;-71
2022/04/05 03:05:06;;;;;;;23.80;9.88;;;5.80;99.90;;;;;;4787744;29;20086;-72
2022/04/05 03:07:35;;;;;;;23.63;10.15;;;5.70;99.90;;;;;;4777296;29;20074;-71
2022/04/05 03:10:04;;;;;;;24.70;10.63;;;5.80;99.90;;;;;;4806752;29;20055;-71
2022/04/05 03:12:31;;;;;;;27.25;10.52;;;5.70;99.90;;;;;;4793948;29;20437;-71
2022/04/05 03:14:58;;;;;;;19.38;9.85;;;5.70;99.90;;;;;;4802438;29;20050;-71
2022/04/05 03:17:25;;;;;;;25.35;10.13;;;5.60;99.90;;;;;;4810057;29;20226;-72
2022/04/05 03:19:53;;;;;;;21.83;9.95;;;5.60;99.90;;;;;;4795193;29;20066;-72
2022/04/05 03:22:21;;;;;;;23.23;10.55;;;5.60;99.90;;;;;;4793709;29;20062;-71
2022/04/05 03:24:49;;;;;;;28.42;11.70;;;5.60;99.90;;;;;;4795104;29;20541;-72
2022/04/05 03:27:16;;;;;;;26.42;10.88;;;5.60;99.90;;;;;;4805141;29;20064;-71
2022/04/05 03:29:42;;;;;;;22.70;9.07;;;5.60;99.90;;;;;;4821535;29;20050;-71
2022/04/05 03:32:11;;;;;;;19.92;8.88;;;5.60;99.90;;;;;;4809118;29;20130;-71
2022/04/05 03:34:39;;;;;;;22.77;9.43;;;5.60;99.90;;;;;;4807553;29;20138;-72
2022/04/05 03:37:06;;;;;;;26.75;11.20;;;5.60;99.90;;;;;;4776409;29;20481;-71
2022/04/05 03:39:33;;;;;;;24.83;10.90;;;5.60;99.90;;;;;;4824466;29;20367;-71
2022/04/05 03:42:00;;;;;;;28.73;11.32;;;5.60;99.90;;;;;;4812712;29;20045;-72
2022/04/05 03:44:27;;;;;;;26.60;10.93;;;5.60;99.90;;;;;;4794170;29;20441;-71
2022/04/05 03:46:56;;;;;;;26.33;10.63;;;5.70;99.90;;;;;;4809056;29;20058;-72
2022/04/05 03:49:24;;;;;;;31.58;11.30;;;5.60;99.90;;;;;;4799830;29;20208;-72
2022/04/05 03:51:53;;;;;;;40.95;14.18;;;5.60;99.90;;;;;;4761675;29;20054;-72
2022/04/05 03:54:21;;;;;;;34.17;13.30;;;5.60;99.90;;;;;;4796350;29;20133;-71
2022/04/05 03:56:48;;;;;;;36.13;13.13;;;5.60;99.90;;;;;;4818129;29;20209;-71
2022/04/05 03:59:18;;;;;;;46.78;14.63;;;5.60;99.90;;;;;;4811702;29;20061;-71
2022/04/05 04:01:45;;;;;;;42.22;13.98;;;5.60;99.90;;;;;;4794806;29;20065;-71
2022/04/05 04:04:12;;;;;;;42.17;12.65;;;5.60;99.90;;;;;;4793545;29;20060;-71
2022/04/05 04:06:40;;;;;;;31.77;12.73;;;5.60;99.90;;;;;;4776487;29;20055;-71
2022/04/05 04:09:07;;;;;;;37.28;13.40;;;5.70;99.90;;;;;;4775842;29;20115;-71
2022/04/05 04:11:35;;;;;;;37.28;14.00;;;5.70;99.90;;;;;;4784811;29;20513;-71
2022/04/05 04:14:02;;;;;;;43.53;15.68;;;5.70;99.90;;;;;;4801770;29;20087;-71
2022/04/05 04:16:29;;;;;;;34.13;14.55;;;5.70;99.90;;;;;;4815584;29;20106;-72
2022/04/05 04:18:56;;;;;;;38.63;15.18;;;5.70;99.90;;;;;;4794643;29;20523;-72
2022/04/05 04:21:27;;;;;;;28.52;13.00;;;5.80;99.90;;;;;;4793094;29;20050;-72
2022/04/05 04:23:54;;;;;;;31.48;12.52;;;5.70;99.90;;;;;;4809586;29;20062;-71
2022/04/05 04:26:21;;;;;;;23.77;10.73;;;5.70;99.90;;;;;;4797358;29;20323;-71
2022/04/05 04:28:52;;;;;;;24.95;10.80;;;5.70;99.90;;;;;;4812486;29;20050;-71
2022/04/05 04:31:19;;;;;;;25.08;10.60;;;5.70;99.90;;;;;;4777303;29;20058;-71
2022/04/05 04:33:46;;;;;;;16.95;9.40;;;5.70;99.90;;;;;;4809888;29;20050;-71
2022/04/05 04:36:13;;;;;;;24.83;11.68;;;5.70;99.90;;;;;;4801903;29;20741;-71
2022/04/05 04:38:40;;;;;;;30.27;13.13;;;5.60;99.90;;;;;;4828316;29;20054;-71
2022/04/05 04:41:07;;;;;;;24.15;12.07;;;5.70;99.90;;;;;;4827709;29;20050;-71
2022/04/05 04:43:34;;;;;;;30.02;13.15;;;5.70;99.90;;;;;;4817952;29;20060;-71
2022/04/05 04:46:01;;;;;;;35.33;13.15;;;5.70;99.90;;;;;;4804755;29;20074;-71
2022/04/05 04:48:28;;;;;;;32.90;14.05;;;5.70;99.90;;;;;;4795429;29;20425;-72
2022/04/05 04:50:55;;;;;;;32.15;14.02;;;5.70;99.90;;;;;;4792447;29;20047;-71
2022/04/05 04:53:21;;;;;;;35.13;14.85;;;5.70;99.90;;;;;;4810490;29;20592;-72
2022/04/05 04:55:49;;;;;;;30.40;14.20;;;5.70;99.90;;;;;;4810288;29;20054;-71
2022/04/05 04:58:39;;;;;;;28.15;14.77;;;5.70;99.90;;;;;;4802077;29;20134;-72
2022/04/05 05:01:06;;;;;;;31.80;14.85;;;5.70;99.90;;;;;;4809773;29;20487;-71
2022/04/05 05:03:32;;;;;;;29.83;14.65;;;5.80;99.90;;;;;;4805798;29;20059;-71
2022/04/05 05:05:59;;;;;;;38.30;15.75;;;5.80;99.90;;;;;;4805627;29;20471;-71
2022/04/05 05:08:26;;;;;;;40.03;16.52;;;5.70;99.90;;;;;;4810037;29;20201;-71
2022/04/05 05:10:53;;;;;;;36.97;17.05;;;5.80;99.90;;;;;;4812213;29;20081;-72
2022/04/05 05:13:20;;;;;;;33.45;16.63;;;5.80;99.90;;;;;;4799023;29;20268;-72
2022/04/05 05:15:49;;;;;;;35.05;16.92;;;5.80;99.90;;;;;;4812963;29;20054;-72
2022/04/05 05:18:16;;;;;;;29.67;15.30;;;5.80;99.90;;;;;;4811592;29;20058;-71
2022/04/05 05:20:43;;;;;;;30.52;16.05;;;5.70;99.90;;;;;;4796127;29;20057;-71
2022/04/05 05:23:10;;;;;;;25.80;12.93;;;5.70;99.90;;;;;;4797086;29;20470;-71
2022/04/05 05:25:37;;;;;;;23.45;12.02;;;5.70;99.90;;;;;;4813436;29;20471;-71
2022/04/05 05:28:04;;;;;;;28.58;14.07;;;5.70;99.90;;;;;;4807837;29;20130;-71
2022/04/05 05:30:33;;;;;;;28.30;14.07;;;5.70;99.90;;;;;;4817229;29;20633;-72
2022/04/05 05:32:59;;;;;;;33.92;14.63;;;5.70;99.90;;;;;;4812667;29;20054;-71
2022/04/05 05:35:26;;;;;;;31.23;15.50;;;5.70;99.90;;;;;;4811851;29;20061;-72
2022/04/05 05:37:53;;;;;;;30.42;14.63;;;5.80;99.90;;;;;;4790446;29;20082;-72
2022/04/05 05:40:20;;;;;;;29.20;14.38;;;5.80;99.90;;;;;;4778232;29;20414;-71
2022/04/05 05:42:50;;;;;;;32.17;16.13;;;5.70;99.90;;;;;;4798845;29;20051;-71
2022/04/05 05:45:17;;;;;;;36.65;16.02;;;5.70;99.90;;;;;;4801966;29;20050;-72
2022/04/05 05:47:44;;;;;;;34.22;17.20;;;5.70;99.90;;;;;;4811995;29;20392;-71
2022/04/05 05:50:12;;;;;;;33.90;15.50;;;5.70;99.90;;;;;;4798120;29;20591;-72
2022/04/05 05:52:43;;;;;;;35.42;16.95;;;5.70;99.90;;;;;;4809359;29;20099;-72
2022/04/05 05:55:12;;;;;;;34.53;15.98;;;5.80;99.90;;;;;;4810314;29;20103;-71
2022/04/05 05:57:39;;;;;;;33.20;15.95;;;5.80;99.90;;;;;;4804773;29;20641;-72
2022/04/05 06:00:09;;;;;;;28.77;14.25;;;5.80;99.90;;;;;;4816521;29;20051;-71
2022/04/05 06:02:39;;;;;;;29.70;13.13;;;5.80;99.90;;;;;;4778135;29;20082;-71
2022/04/05 06:05:08;;;;;;;26.30;13.07;;;5.80;99.90;;;;;;4778402;29;20729;-71
2022/04/05 06:07:41;;;;;;;30.88;14.48;;;5.80;99.90;;;;;;4779286;29;20362;-72
2022/04/05 06:10:09;;;;;;;25.85;12.55;;;5.80;99.90;;;;;;4796266;29;20429;-71
2022/04/05 06:12:38;;;;;;;26.75;13.80;;;5.80;99.90;;;;;;4789255;29;20058;-72
2022/04/05 06:15:08;;;;;;;31.05;14.70;;;5.80;99.90;;;;;;4810340;29;20332;-72
2022/04/05 06:17:40;;;;;;;29.48;13.90;;;5.80;99.90;;;;;;4812148;29;20173;-71
2022/04/05 06:20:08;;;;;;;28.67;13.15;;;5.80;99.90;;;;;;4810924;29;20058;-72
2022/04/05 06:22:41;;;;;;;27.17;14.77;;;5.80;99.90;;;;;;4795198;29;20112;-71
2022/04/05 06:25:09;;;;;;;33.42;14.77;;;5.80;99.90;;;;;;4811997;29;20192;-72
2022/04/05 06:30:10;;;;;;;26.40;13.23;;;5.90;99.90;;;;;;4747366;23;20054;-72
2022/04/05 06:32:37;;;;;;;38.38;14.20;;;5.90;99.90;;;;;;4796553;29;20055;-71
2022/04/05 06:35:06;;;;;;;25.95;12.48;;;5.90;99.90;;;;;;4778601;29;20062;-71
2022/04/05 06:37:35;;;;;;;34.80;14.27;;;6.00;99.90;;;;;;4777831;29;20511;-71
2022/04/05 06:40:07;;;;;;;32.75;14.35;;;5.90;99.90;;;;;;4770041;29;20595;-72
2022/04/05 06:42:35;;;;;;;27.05;14.27;;;5.90;99.90;;;;;;4801107;29;20262;-72
2022/04/05 06:45:02;;;;;;;27.17;14.02;;;5.90;99.90;;;;;;4776866;30;20123;-72
2022/04/05 06:47:29;;;;;;;16.65;8.65;;;5.80;99.90;;;;;;4779343;29;20545;-71
2022/04/05 06:49:56;;;;;;;19.98;8.18;;;5.70;99.90;;;;;;4776231;29;20062;-72
2022/04/05 06:52:22;;;;;;;16.33;8.38;;;5.70;99.90;;;;;;4776060;29;20067;-71
2022/04/05 06:54:49;;;;;;;15.85;9.10;;;5.70;99.90;;;;;;4760926;30;20511;-71
2022/04/05 06:57:16;;;;;;;18.20;8.70;;;5.60;99.90;;;;;;4764122;29;20046;-71
2022/04/05 06:59:48;;;;;;;17.75;8.32;;;5.60;99.90;;;;;;4792369;29;20059;-71
2022/04/05 07:02:15;;;;;;;16.10;8.55;;;5.60;99.90;;;;;;4794173;29;20088;-71
2022/04/05 07:04:41;;;;;;;14.75;7.65;;;5.60;99.90;;;;;;4800915;29;20068;-74
2022/04/05 07:07:08;;;;;;;14.43;8.15;;;5.70;99.90;;;;;;4789990;29;20043;-75
2022/04/05 07:09:35;;;;;;;16.80;8.05;;;5.80;99.90;;;;;;4781720;29;20066;-75
2022/04/05 07:12:02;;;;;;;15.45;8.52;;;5.80;99.90;;;;;;4772885;30;20051;-75
2022/04/05 07:14:29;;;;;;;11.98;7.47;;;5.90;99.90;;;;;;4790744;29;20055;-76
2022/04/05 07:16:56;;;;;;;17.73;7.97;;;5.90;99.90;;;;;;4778370;29;20142;-76
2022/04/05 07:19:23;;;;;;;19.15;9.10;;;5.90;99.90;;;;;;4768290;29;20219;-76
2022/04/05 07:21:49;;;;;;;18.25;9.10;;;5.90;99.90;;;;;;4775852;29;20070;-76
2022/04/05 07:24:16;;;;;;;17.73;10.00;;;5.90;99.90;;;;;;4761866;30;20090;-76
2022/04/05 07:26:43;;;;;;;20.20;9.18;;;6.00;99.90;;;;;;4783935;29;20067;-76
2022/04/05 07:29:10;;;;;;;15.25;8.70;;;6.00;99.90;;;;;;4771170;29;20404;-76
2022/04/05 07:31:37;;;;;;;13.73;7.78;;;6.00;99.90;;;;;;4772027;29;20127;-76
2022/04/05 07:34:04;;;;;;;10.05;6.85;;;6.00;99.90;;;;;;4775288;30;20094;-76
2022/04/05 07:36:32;;;;;;;18.40;7.60;;;5.80;99.90;;;;;;4774427;30;20108;-76
2022/04/05 07:38:59;;;;;;;12.25;6.85;;;5.90;99.90;;;;;;4771731;29;20220;-75
2022/04/05 07:41:26;;;;;;;14.05;7.35;;;5.90;99.90;;;;;;4775110;29;20286;-75
2022/04/05 07:43:53;;;;;;;14.60;7.22;;;5.90;99.90;;;;;;4767199;30;20138;-75
2022/04/05 07:46:20;;;;;;;11.00;7.07;;;6.10;99.90;;;;;;4774408;29;20438;-76
2022/04/05 07:48:47;;;;;;;12.20;7.75;;;6.00;99.90;;;;;;4776099;29;20062;-75
2022/04/05 07:51:15;;;;;;;11.07;7.60;;;6.10;99.90;;;;;;4758649;30;20104;-75
2022/04/05 07:53:42;;;;;;;14.45;8.70;;;6.10;99.90;;;;;;4789154;29;20422;-76
2022/04/05 07:56:12;;;;;;;14.55;10.50;;;6.20;99.90;;;;;;4755457;30;20047;-76
2022/04/05 07:58:40;;;;;;;14.98;8.65;;;6.30;99.90;;;;;;4761791;29;20120;-76
2022/04/05 08:01:09;;;;;;;10.82;6.80;;;6.40;99.90;;;;;;4774936;29;20415;-76
2022/04/05 08:03:36;;;;;;;13.27;6.88;;;6.50;99.90;;;;;;4777381;30;20125;-76
2022/04/05 08:06:03;;;;;;;10.43;6.15;;;6.60;99.90;;;;;;4771945;30;20611;-75
2022/04/05 08:08:30;;;;;;;12.02;6.90;;;6.60;99.90;;;;;;4788641;29;20055;-76
2022/04/05 08:11:17;;;;;;;10.57;7.28;;;6.70;99.90;;;;;;4760708;29;20579;-76
2022/04/05 08:13:44;;;;;;;10.10;6.18;;;6.70;99.90;;;;;;4795041;29;20278;-76
2022/04/05 08:16:11;;;;;;;13.93;6.80;;;6.80;99.90;;;;;;4771998;29;20047;-76
2022/04/05 08:18:37;;;;;;;11.88;5.97;;;6.70;99.90;;;;;;4781623;29;20469;-75
2022/04/05 08:21:05;;;;;;;11.32;6.05;;;6.80;99.90;;;;;;4775980;29;20142;-76
2022/04/05 08:23:32;;;;;;;9.95;6.70;;;7.00;99.90;;;;;;4778270;30;20059;-76
2022/04/05 08:25:59;;;;;;;9.07;5.57;;;7.00;99.90;;;;;;4764139;29;20059;-76
2022/04/05 08:28:26;;;;;;;9.63;7.18;;;7.10;99.90;;;;;;4789244;29;20097;-76
2022/04/05 08:30:53;;;;;;;11.55;5.80;;;7.20;99.90;;;;;;4771566;30;20112;-75
2022/04/05 08:33:20;;;;;;;12.63;6.95;;;7.10;99.90;;;;;;4807034;29;20101;-75
2022/04/05 08:35:47;;;;;;;13.02;8.88;;;7.00;99.90;;;;;;4814169;29;20418;-76
2022/04/05 08:38:14;;;;;;;13.48;8.60;;;7.00;99.90;;;;;;4798092;29;20106;-75
2022/04/05 08:40:42;;;;;;;15.77;9.13;;;7.00;99.90;;;;;;4765337;29;20071;-75
2022/04/05 08:43:09;;;;;;;12.60;7.90;;;7.00;99.90;;;;;;4783775;29;20408;-75
2022/04/05 08:45:36;;;;;;;13.13;8.93;;;6.90;99.90;;;;;;4785075;29;20058;-76
2022/04/05 08:48:09;;;;;;;18.80;9.32;;;6.80;99.90;;;;;;4780558;29;20059;-76
2022/04/05 08:50:36;;;;;;;11.50;7.57;;;6.90;99.90;;;;;;4763354;30;20328;-76
2022/04/05 08:53:04;;;;;;;15.65;8.80;;;6.90;99.90;;;;;;4763635;30;20076;-75
2022/04/05 08:55:37;;;;;;;16.05;7.93;;;6.90;99.90;;;;;;4764491;29;20051;-75
2022/04/05 08:58:05;;;;;;;13.85;7.30;;;6.90;99.90;;;;;;4774877;29;20526;-76
2022/04/05 09:00:32;;;;;;;15.48;7.68;;;6.90;99.90;;;;;;4796016;29;20058;-74
2022/04/05 09:03:02;;;;;;;15.05;8.63;;;7.00;99.90;;;;;;4781839;29;20594;-73
2022/04/05 09:05:31;;;;;;;15.73;7.20;;;7.10;99.90;;;;;;4795827;29;20106;-73
2022/04/05 09:08:18;;;;;;;11.20;6.40;;;7.20;99.90;;;;;;4775807;29;20459;-73
2022/04/05 09:10:49;;;;;;;10.32;6.07;;;7.20;99.90;;;;;;4768462;30;20055;-73
2022/04/05 09:13:19;;;;;;;15.82;6.65;;;7.10;99.90;;;;;;4779577;30;20125;-73
2022/04/05 09:15:51;;;;;;;14.68;7.10;;;7.10;99.90;;;;;;4778482;29;20420;-73
2022/04/05 09:18:34;;;;;;;10.27;6.25;;;7.00;99.90;;;;;;4790955;29;20167;-73
2022/04/05 09:21:03;;;;;;;9.27;5.47;;;7.10;99.90;;;;;;4773187;29;20093;-73
2022/04/05 09:23:38;;;;;;;10.07;5.75;;;7.20;99.90;;;;;;4790630;29;20047;-73
2022/04/05 09:26:17;;;;;;;13.10;6.78;;;7.20;99.90;;;;;;4761103;29;20285;-73
2022/04/05 09:28:46;;;;;;;10.32;5.75;;;7.20;99.90;;;;;;4775180;29;20165;-73
2022/04/05 09:31:15;;;;;;;10.15;5.88;;;7.20;99.90;;;;;;4790423;29;20522;-75
2022/04/05 09:34:19;;;;;;;8.27;4.22;;;7.10;99.90;;;;;;4775917;30;20446;-74
2022/04/05 09:36:49;;;;;;;12.45;5.82;;;7.10;99.90;;;;;;4762729;30;20066;-73
2022/04/05 09:39:21;;;;;;;11.65;5.65;;;7.00;99.90;;;;;;4759829;29;20115;-73
2022/04/05 09:41:58;;;;;;;11.57;5.10;;;7.00;99.90;;;;;;4790016;29;20482;-73
2022/04/05 09:44:29;;;;;;;10.05;4.97;;;7.10;99.90;;;;;;4761192;29;20059;-73
2022/04/05 09:47:16;;;;;;;11.73;6.47;;;7.20;99.90;;;;;;4770406;29;20270;-74
2022/04/05 09:49:45;;;;;;;10.05;4.90;;;7.20;99.90;;;;;;4760932;30;20059;-73
2022/04/05 09:52:26;;;;;;;11.60;5.43;;;7.30;99.90;;;;;;4775180;29;20104;-73
2022/04/05 09:54:53;;;;;;;11.85;4.60;;;7.40;99.90;;;;;;4788592;29;20100;-73
2022/04/05 09:57:31;;;;;;;7.50;4.15;;;7.40;99.90;;;;;;4787806;29;20372;-74
2022/04/05 10:00:15;;;;;;;11.10;5.20;;;7.50;99.90;;;;;;4772306;29;20055;-74
2022/04/05 10:03:21;;;;;;;11.25;5.55;;;7.50;99.90;;;;;;4769952;29;20078;-73
2022/04/05 10:05:53;;;;;;;8.88;4.38;;;7.50;99.90;;;;;;4742413;30;20059;-73
2022/04/05 10:08:21;;;;;;;7.10;3.75;;;7.60;99.90;;;;;;4753607;30;20151;-73
2022/04/05 10:10:49;;;;;;;7.78;4.22;;;7.60;99.90;;;;;;4746624;30;20087;-74
2022/04/05 10:13:15;;;;;;;9.30;4.22;;;7.60;99.90;;;;;;4788141;29;20048;-73
2022/04/05 10:15:51;;;;;;;6.35;3.80;;;7.60;99.90;;;;;;4786413;29;20122;-73
2022/04/05 10:18:21;;;;;;;7.88;3.72;;;7.70;99.90;;;;;;4788032;29;20136;-73
2022/04/05 10:20:49;;;;;;;7.70;3.67;;;7.80;99.90;;;;;;4772938;29;20059;-73
2022/04/05 10:23:22;;;;;;;9.77;6.05;;;7.80;99.90;;;;;;4773549;30;20515;-73
2022/04/05 10:25:51;;;;;;;5.32;3.30;;;7.90;99.90;;;;;;4773082;29;20054;-73
2022/04/05 10:28:23;;;;;;;6.10;3.80;;;7.90;99.90;;;;;;4757804;30;20039;-74
2022/04/05 10:30:55;;;;;;;5.68;3.60;;;7.90;99.90;;;;;;4772697;29;20142;-73
2022/04/05 10:33:33;;;;;;;6.10;3.00;;;7.90;99.90;;;;;;4774051;30;20143;-73
2022/04/05 10:36:01;;;;;;;6.22;3.75;;;7.80;99.90;;;;;;4772015;29;20051;-74
2022/04/05 10:38:29;;;;;;;7.10;4.90;;;7.70;99.90;;;;;;4773874;29;20051;-74
2022/04/05 10:41:16;;;;;;;5.15;2.92;;;7.70;99.90;;;;;;4770663;29;20337;-74
2022/04/05 10:43:45;;;;;;;2.58;2.38;;;7.70;99.90;;;;;;4771912;29;20055;-74
2022/04/05 10:46:11;;;;;;;8.63;5.25;;;7.50;99.90;;;;;;4773658;29;20054;-74
2022/04/05 10:48:55;;;;;;;5.57;3.85;;;7.60;99.90;;;;;;4773749;29;20051;-74
2022/04/05 10:51:31;;;;;;;7.20;5.22;;;7.70;99.90;;;;;;4772362;29;20126;-74
2022/04/05 10:54:19;;;;;;;7.85;6.95;;;7.70;99.90;;;;;;4773231;29;20309;-74
2022/04/05 10:57:29;;;;;;;10.15;8.05;;;7.80;99.90;;;;;;4786347;29;20081;-74
2022/04/05 10:59:58;;;;;;;16.88;11.50;;;7.80;99.90;;;;;;4786279;29;20112;-74
2022/04/05 11:02:32;;;;;;;12.27;8.82;;;7.80;99.90;;;;;;4773142;30;20084;-74
2022/04/05 11:05:15;;;;;;;9.95;6.95;;;7.80;99.90;;;;;;4757347;30;20141;-74
2022/04/05 11:07:54;;;;;;;8.90;6.72;;;7.80;99.90;;;;;;4785895;29;20163;-74
2022/04/05 11:10:44;;;;;;;13.40;8.70;;;7.90;99.90;;;;;;4786004;29;20058;-74
2022/04/05 11:13:29;;;;;;;10.88;7.68;;;7.90;99.90;;;;;;4785863;29;20128;-74
2022/04/05 11:15:58;;;;;;;11.05;9.02;;;8.00;99.90;;;;;;4772366;29;20392;-74
2022/04/05 11:18:28;;;;;;;12.55;8.98;;;8.20;99.90;;;;;;4773032;29;20078;-74
2022/04/05 11:20:57;;;;;;;15.48;10.05;;;8.20;99.90;;;;;;4772376;29;20059;-74
2022/04/05 11:23:40;;;;;;;20.08;13.05;;;8.30;99.90;;;;;;4772994;29;20363;-74
2022/04/05 11:26:23;;;;;;;18.67;12.18;;;8.30;99.90;;;;;;4771210;29;20051;-73
2022/04/05 11:28:53;;;;;;;;;;;8.20;99.90;;;;;;4772518;29;20497;-72
2022/04/05 11:31:30;;;;;;;19.02;11.93;;;8.10;99.90;;;;;;4785920;29;19940;-73
2022/04/05 11:33:57;;;;;;;21.17;12.57;;;8.10;99.90;;;;;;4772270;29;20600;-73
2022/04/05 11:36:25;;;;;;;22.70;13.30;;;8.20;99.90;;;;;;4785123;29;20047;-74
2022/04/05 11:38:57;;;;;;;20.30;12.13;;;8.30;99.90;;;;;;4769835;29;20812;-72
2022/04/05 11:41:31;;;;;;;23.85;14.68;;;8.40;99.90;;;;;;4756294;30;20439;-73
2022/04/05 11:44:00;;;;;;;21.33;12.90;;;8.50;99.90;;;;;;4772096;29;20051;-72
2022/04/05 11:46:35;;;;;;;22.75;14.82;;;8.40;99.90;;;;;;4770390;29;20079;-73
2022/04/05 11:49:10;;;;;;;24.40;14.25;;;8.50;99.90;;;;;;4786758;29;20062;-73
2022/04/05 11:51:44;;;;;;;24.13;14.77;;;8.50;99.90;;;;;;4771650;29;20372;-72
2022/04/05 11:54:14;;;;;;;22.98;14.73;;;8.70;99.90;;;;;;4771754;30;20136;-73
2022/04/05 11:56:41;;;;;;;22.17;13.93;;;8.60;99.90;;;;;;4756472;29;20048;-72
2022/04/05 11:59:16;;;;;;;25.10;14.80;;;8.70;99.90;;;;;;4786146;29;20051;-72
2022/04/05 12:01:45;;;;;;;25.63;15.37;;;8.70;99.90;;;;;;4755303;30;20605;-72
2022/04/05 12:04:20;;;;;;;23.13;15.00;;;8.80;99.90;;;;;;4771529;30;20664;-72
2022/04/05 12:06:58;;;;;;;25.30;15.07;;;8.90;99.90;;;;;;4769861;29;20112;-72
2022/04/05 12:09:26;;;;;;;24.92;14.02;;;8.80;99.90;;;;;;4784131;29;20139;-71
2022/04/05 12:11:54;;;;;;;23.33;15.13;;;8.80;99.90;;;;;;4754598;30;20129;-72
2022/04/05 12:14:24;;;;;;;22.52;14.88;;;8.90;99.90;;;;;;4771323;29;20515;-71
2022/04/05 12:16:53;;;;;;;24.10;15.73;;;9.00;99.90;;;;;;4757098;30;20054;-72
2022/04/05 12:19:30;;;;;;;23.35;15.38;;;9.00;99.90;;;;;;4784334;29;20558;-72
2022/04/05 12:22:02;;;;;;;21.45;14.15;;;9.10;99.90;;;;;;4784740;29;20300;-72
2022/04/05 12:24:30;;;;;;;21.95;14.88;;;9.20;99.90;;;;;;4773844;29;20477;-72
2022/04/05 12:26:59;;;;;;;24.90;16.17;;;9.20;99.90;;;;;;4775449;29;20063;-73
2022/04/05 12:29:30;;;;;;;30.58;17.23;;;9.20;99.90;;;;;;4779842;29;20474;-74
2022/04/05 12:32:09;;;;;;;27.15;16.38;;;9.30;99.90;;;;;;4770292;29;20400;-74
2022/04/05 12:34:37;;;;;;;23.85;16.05;;;9.30;99.90;;;;;;4772899;29;20078;-73
2022/04/05 12:37:17;;;;;;;26.02;14.63;;;9.20;99.90;;;;;;4774387;29;20596;-73
2022/04/05 12:39:50;;;;;;;26.60;15.30;;;9.10;99.90;;;;;;4775782;29;20055;-73
2022/04/05 12:42:19;;;;;;;23.55;15.05;;;9.00;99.90;;;;;;4763995;30;20052;-73
2022/04/05 12:44:55;;;;;;;25.20;15.30;;;9.00;99.90;;;;;;4802257;29;20055;-74
2022/04/05 12:47:25;;;;;;;25.60;15.70;;;9.00;99.90;;;;;;4802910;29;20063;-74
2022/04/05 12:49:54;;;;;;;21.38;15.02;;;9.10;99.90;;;;;;4763182;29;20052;-74
2022/04/05 12:52:24;;;;;;;21.52;14.38;;;9.20;99.90;;;;;;4757922;30;20711;-74
2022/04/05 12:55:00;;;;;;;18.30;12.88;;;9.30;99.90;;;;;;4758085;30;20104;-73
2022/04/05 12:57:29;;;;;;;;;;;9.40;99.90;;;;;;4763390;30;20059;-73
2022/04/05 13:00:19;;;;;;;22.02;13.38;;;9.30;99.90;;;;;;4790620;29;20877;-74